Time;durP1;ratioP1;P1;durP2;ratioP2;P2;SDS_P1;SDS_P2;PMS_P1;PMS_P2;Temp;Humidity;BMP_temperature;BMP_pressure;BME280_temperature;BME280_humidity;BME280_pressure;Samples;Min_cycle;Max_cycle;Signal;HPM_P1;HPM_P2
2022/04/12 00:01:07;;;;;;;1.80;1.67;;;5.90;99.90;;;;;;5033223;28;20497;-68
2022/04/12 00:03:33;;;;;;;1.83;1.70;;;5.90;99.90;;;;;;5032855;28;20175;-67
2022/04/12 00:05:58;;;;;;;2.50;1.53;;;5.80;99.90;;;;;;5033285;28;20821;-68
2022/04/12 00:08:24;;;;;;;10.70;1.90;;;5.80;99.90;;;;;;5033165;28;20455;-67
2022/04/12 00:10:50;;;;;;;1.73;1.40;;;5.80;99.90;;;;;;5033429;28;20206;-66
2022/04/12 00:13:18;;;;;;;1.40;1.30;;;5.80;99.90;;;;;;5033142;28;20155;-67
2022/04/12 00:15:44;;;;;;;1.73;1.60;;;5.70;99.90;;;;;;5033551;28;20403;-67
2022/04/12 00:20:53;;;;;;;1.70;1.60;;;5.70;99.90;;;;;;5033535;28;20444;-67
2022/04/12 00:23:19;;;;;;;1.37;1.27;;;5.70;99.90;;;;;;5033063;28;20410;-69
2022/04/12 00:25:45;;;;;;;1.87;1.70;;;5.80;99.90;;;;;;5024430;28;20179;-68
2022/04/12 00:28:12;;;;;;;1.93;1.83;;;5.70;99.90;;;;;;5013327;28;20411;-68
2022/04/12 00:30:38;;;;;;;2.27;2.07;;;5.70;99.90;;;;;;5013109;28;20550;-68
2022/04/12 00:33:04;;;;;;;1.87;1.77;;;5.70;99.90;;;;;;5011751;28;20411;-66
2022/04/12 00:35:29;;;;;;;1.37;1.27;;;5.70;99.90;;;;;;5012869;28;20789;-67
2022/04/12 00:37:55;;;;;;;1.67;1.57;;;5.70;99.90;;;;;;5012958;28;20255;-66
2022/04/12 00:40:24;;;;;;;3.00;2.03;;;5.70;99.90;;;;;;5013407;28;20177;-66
2022/04/12 00:42:50;;;;;;;1.67;1.47;;;5.60;99.90;;;;;;5017214;28;20410;-67
2022/04/12 00:45:16;;;;;;;5.93;2.13;;;5.60;99.90;;;;;;5032390;28;20458;-67
2022/04/12 00:47:42;;;;;;;3.40;2.73;;;5.70;99.90;;;;;;5032667;28;20407;-67
2022/04/12 00:50:10;;;;;;;1.77;1.67;;;5.70;99.90;;;;;;5032242;28;20453;-67
2022/04/12 00:52:39;;;;;;;1.50;1.40;;;5.70;99.90;;;;;;5032509;28;20764;-69
2022/04/12 00:55:06;;;;;;;1.57;1.20;;;5.60;99.90;;;;;;5032195;28;20426;-67
2022/04/12 00:57:32;;;;;;;1.97;1.53;;;5.60;99.90;;;;;;5032211;28;20438;-67
2022/04/12 01:00:00;;;;;;;2.73;1.20;;;5.60;99.90;;;;;;5027104;28;20525;-67
2022/04/12 01:02:26;;;;;;;1.80;1.70;;;5.60;99.90;;;;;;5031152;28;20933;-66
2022/04/12 01:04:52;;;;;;;1.53;1.43;;;5.60;99.90;;;;;;5026082;28;20496;-68
2022/04/12 01:07:18;;;;;;;3.83;2.23;;;5.60;99.90;;;;;;5030100;28;20426;-66
2022/04/12 01:09:45;;;;;;;1.60;1.50;;;5.60;99.90;;;;;;5031684;28;20188;-66
2022/04/12 01:12:11;;;;;;;3.70;2.07;;;5.60;99.90;;;;;;5032502;28;20465;-67
2022/04/12 01:14:37;;;;;;;2.03;1.60;;;5.60;99.90;;;;;;5031373;28;20478;-67
2022/04/12 01:17:04;;;;;;;3.10;1.53;;;5.60;99.90;;;;;;5028868;28;20974;-67
2022/04/12 01:19:30;;;;;;;1.33;1.23;;;5.60;99.90;;;;;;5031859;28;20790;-67
2022/04/12 01:22:03;;;;;;;3.17;1.33;;;5.60;99.90;;;;;;5031915;28;20801;-66
2022/04/12 01:24:30;;;;;;;3.73;2.07;;;5.50;99.90;;;;;;5031631;28;20207;-68
2022/04/12 01:26:56;;;;;;;4.23;1.77;;;5.50;99.90;;;;;;5030128;28;20430;-66
2022/04/12 01:29:30;;;;;;;1.70;1.40;;;5.50;99.90;;;;;;5032283;28;20589;-67
2022/04/12 01:31:56;;;;;;;2.57;1.70;;;5.50;99.90;;;;;;5032270;28;20433;-68
2022/04/12 01:34:21;;;;;;;3.07;2.20;;;5.50;99.90;;;;;;5032007;28;20454;-68
2022/04/12 01:36:47;;;;;;;3.13;1.97;;;5.50;99.90;;;;;;5031541;28;20269;-68
2022/04/12 01:39:12;;;;;;;3.30;1.93;;;5.50;99.90;;;;;;5030172;28;20176;-67
2022/04/12 01:41:38;;;;;;;1.73;1.63;;;5.50;99.90;;;;;;5031484;28;20664;-68
2022/04/12 01:44:03;;;;;;;1.77;1.40;;;5.50;99.90;;;;;;5031217;28;20196;-69
2022/04/12 01:46:29;;;;;;;4.40;1.77;;;5.50;99.90;;;;;;5031212;28;20210;-67
2022/04/12 01:48:54;;;;;;;2.57;2.07;;;5.50;99.90;;;;;;5031357;28;20797;-67
2022/04/12 01:51:20;;;;;;;1.97;1.70;;;5.50;99.90;;;;;;5030866;28;20211;-68
2022/04/12 01:53:45;;;;;;;2.60;1.77;;;5.50;99.90;;;;;;5031098;28;20583;-68
2022/04/12 01:56:11;;;;;;;2.70;2.30;;;5.40;99.90;;;;;;5031619;28;20173;-68
2022/04/12 01:58:36;;;;;;;2.17;2.07;;;5.40;99.90;;;;;;5031340;28;20267;-67
2022/04/12 02:01:03;;;;;;;1.83;1.57;;;5.40;99.90;;;;;;5018288;28;20525;-68
2022/04/12 02:03:28;;;;;;;2.50;1.67;;;5.30;99.90;;;;;;5026601;28;20230;-68
2022/04/12 02:05:54;;;;;;;2.20;1.43;;;5.30;99.90;;;;;;5030650;28;20442;-68
2022/04/12 02:08:20;;;;;;;2.40;1.43;;;5.30;99.90;;;;;;5053371;23;20550;-72
2022/04/12 02:10:46;;;;;;;2.33;2.10;;;5.20;99.90;;;;;;5031470;28;20528;-71
2022/04/12 02:13:12;;;;;;;2.40;2.20;;;5.20;99.90;;;;;;5031646;28;20537;-71
2022/04/12 02:15:37;;;;;;;2.60;2.40;;;5.10;99.90;;;;;;5031689;28;20194;-71
2022/04/12 02:18:02;;;;;;;1.97;1.83;;;5.10;99.90;;;;;;5031742;28;20230;-71
2022/04/12 02:20:28;;;;;;;2.17;1.63;;;5.10;99.90;;;;;;5031671;28;20255;-72
2022/04/12 02:22:53;;;;;;;2.60;2.07;;;5.00;99.90;;;;;;5031516;28;20179;-71
2022/04/12 02:25:19;;;;;;;2.90;1.80;;;4.90;99.90;;;;;;5026270;28;20176;-71
2022/04/12 02:27:45;;;;;;;2.37;2.00;;;4.90;99.90;;;;;;5010273;28;20199;-71
2022/04/12 02:30:12;;;;;;;4.90;2.00;;;4.80;99.90;;;;;;5011712;28;20208;-72
2022/04/12 02:32:38;;;;;;;3.33;2.40;;;4.80;99.90;;;;;;5012139;28;20303;-73
2022/04/12 02:35:04;;;;;;;2.20;2.10;;;4.80;99.90;;;;;;5012006;28;20407;-72
2022/04/12 02:37:29;;;;;;;1.80;1.70;;;4.80;99.90;;;;;;5011957;28;20191;-72
2022/04/12 02:39:55;;;;;;;4.60;2.13;;;4.70;99.90;;;;;;5011815;28;20407;-71
2022/04/12 02:42:21;;;;;;;3.33;1.93;;;4.70;99.90;;;;;;5011797;28;20184;-71
2022/04/12 02:44:46;;;;;;;3.10;2.80;;;4.70;99.90;;;;;;5031344;28;20410;-72
2022/04/12 02:47:12;;;;;;;2.07;1.83;;;4.70;99.90;;;;;;5031599;28;20274;-71
2022/04/12 02:49:37;;;;;;;3.83;2.53;;;4.60;99.90;;;;;;5031298;28;20175;-72
2022/04/12 02:52:03;;;;;;;3.07;2.60;;;4.60;99.90;;;;;;5031385;28;20175;-72
2022/04/12 02:54:29;;;;;;;2.47;2.03;;;4.60;99.90;;;;;;5031606;28;20167;-72
2022/04/12 02:56:54;;;;;;;1.93;1.77;;;4.50;99.90;;;;;;5031501;28;20437;-72
2022/04/12 02:59:20;;;;;;;4.90;2.33;;;4.50;99.90;;;;;;5031703;28;20182;-71
2022/04/12 03:01:45;;;;;;;2.70;1.97;;;4.50;99.90;;;;;;5031144;28;20590;-72
2022/04/12 03:04:10;;;;;;;3.03;1.70;;;4.50;99.90;;;;;;5031564;28;20264;-72
2022/04/12 03:06:36;;;;;;;3.77;1.63;;;4.40;99.90;;;;;;5031128;28;20800;-72
2022/04/12 03:09:02;;;;;;;2.53;2.03;;;4.40;99.90;;;;;;5031311;28;20182;-71
2022/04/12 03:11:28;;;;;;;1.50;1.40;;;4.40;99.90;;;;;;5031843;28;20206;-71
2022/04/12 03:13:53;;;;;;;3.50;2.27;;;4.40;99.90;;;;;;5035064;28;20406;-71
2022/04/12 03:16:18;;;;;;;6.13;3.30;;;4.30;99.90;;;;;;5035134;28;20168;-71
2022/04/12 03:18:44;;;;;;;2.10;2.00;;;4.30;99.90;;;;;;5034797;28;20669;-72
2022/04/12 03:21:10;;;;;;;4.93;2.70;;;4.30;99.90;;;;;;5034821;28;20237;-72
2022/04/12 03:23:36;;;;;;;2.03;1.87;;;4.30;99.90;;;;;;5034764;28;20175;-72
2022/04/12 03:26:02;;;;;;;3.60;2.10;;;4.20;99.90;;;;;;5034487;28;20194;-71
2022/04/12 03:28:27;;;;;;;3.07;2.77;;;4.20;99.90;;;;;;5034625;28;20438;-71
2022/04/12 03:30:53;;;;;;;3.70;2.73;;;4.20;99.90;;;;;;5034685;28;20558;-72
2022/04/12 03:33:18;;;;;;;5.27;3.03;;;4.20;99.90;;;;;;5034721;28;20203;-71
2022/04/12 03:35:44;;;;;;;4.47;3.00;;;4.10;99.90;;;;;;5034495;28;20175;-71
2022/04/12 03:38:09;;;;;;;2.87;2.67;;;4.10;99.90;;;;;;5034480;28;20192;-72
2022/04/12 03:40:35;;;;;;;2.23;2.10;;;4.10;99.90;;;;;;5034718;28;20168;-72
2022/04/12 03:43:02;;;;;;;3.37;2.37;;;4.10;99.90;;;;;;5034623;28;20627;-72
2022/04/12 03:45:29;;;;;;;4.23;2.13;;;4.10;99.90;;;;;;5035074;28;20296;-73
2022/04/12 03:47:54;;;;;;;2.70;2.20;;;4.10;99.90;;;;;;5035887;28;20456;-72
2022/04/12 03:50:20;;;;;;;2.83;2.33;;;4.10;99.90;;;;;;5037491;28;21074;-72
2022/04/12 03:52:46;;;;;;;3.23;2.00;;;4.00;99.90;;;;;;5037627;28;20468;-70
2022/04/12 03:55:12;;;;;;;2.20;2.00;;;4.00;99.90;;;;;;5037344;28;20493;-71
2022/04/12 03:57:37;;;;;;;2.30;2.10;;;4.00;99.90;;;;;;5037652;28;20192;-72
2022/04/12 04:00:08;;;;;;;3.07;2.63;;;4.00;99.90;;;;;;5038092;28;20179;-72
2022/04/12 04:02:34;;;;;;;4.27;2.80;;;3.90;99.90;;;;;;5037662;28;20180;-72
2022/04/12 04:04:59;;;;;;;3.73;3.43;;;3.90;99.90;;;;;;5036693;28;20403;-72
2022/04/12 04:07:25;;;;;;;2.60;2.40;;;3.90;99.90;;;;;;5036252;28;20979;-71
2022/04/12 04:09:50;;;;;;;2.90;2.70;;;3.90;99.90;;;;;;5036421;28;20176;-71
2022/04/12 04:12:16;;;;;;;2.83;2.43;;;3.80;99.90;;;;;;5037827;28;20902;-71
2022/04/12 04:14:42;;;;;;;4.53;2.80;;;3.80;99.90;;;;;;5034422;28;20553;-72
2022/04/12 04:17:08;;;;;;;3.87;3.03;;;3.80;99.90;;;;;;5034114;28;20192;-72
2022/04/12 04:19:33;;;;;;;2.23;2.13;;;3.90;99.90;;;;;;5033987;28;20922;-72
2022/04/12 04:21:59;;;;;;;2.97;2.67;;;3.80;99.90;;;;;;5034082;28;20176;-71
2022/04/12 04:24:24;;;;;;;3.47;2.37;;;3.80;99.90;;;;;;5033379;28;20694;-71
2022/04/12 04:26:55;;;;;;;3.13;2.93;;;3.80;99.90;;;;;;5033544;28;20214;-72
2022/04/12 04:29:22;;;;;;;6.27;3.10;;;3.90;99.90;;;;;;5034038;28;20175;-71
2022/04/12 04:31:48;;;;;;;3.67;2.40;;;3.90;99.90;;;;;;5033660;28;20469;-72
2022/04/12 04:34:13;;;;;;;2.83;2.63;;;3.90;99.90;;;;;;5033869;28;20411;-70
2022/04/12 04:36:38;;;;;;;4.33;3.40;;;3.90;99.90;;;;;;5033715;28;20412;-70
2022/04/12 04:39:04;;;;;;;2.40;2.20;;;3.90;99.90;;;;;;5033706;28;20183;-70
2022/04/12 04:41:29;;;;;;;3.17;2.50;;;3.90;99.90;;;;;;5033908;28;20804;-71
2022/04/12 04:43:55;;;;;;;3.77;3.50;;;4.00;99.90;;;;;;5033717;28;20183;-71
2022/04/12 04:46:20;;;;;;;2.27;2.17;;;4.00;99.90;;;;;;5033554;28;20178;-71
2022/04/12 04:48:46;;;;;;;4.10;2.70;;;4.00;99.90;;;;;;5033615;28;20387;-72
2022/04/12 04:51:11;;;;;;;6.60;3.77;;;4.10;99.90;;;;;;5033581;28;20537;-72
2022/04/12 04:53:37;;;;;;;4.87;3.30;;;4.10;99.90;;;;;;5033480;28;20250;-71
2022/04/12 04:56:04;;;;;;;2.87;2.30;;;4.10;99.90;;;;;;5033423;28;20176;-71
2022/04/12 04:58:30;;;;;;;3.37;2.70;;;4.20;99.90;;;;;;5033224;28;20426;-71
2022/04/12 05:00:55;;;;;;;4.67;2.60;;;4.20;99.90;;;;;;5032949;28;20497;-72
2022/04/12 05:03:21;;;;;;;2.50;2.13;;;4.20;99.90;;;;;;5033223;28;20183;-71
2022/04/12 05:05:46;;;;;;;3.40;2.77;;;4.30;99.90;;;;;;5032936;28;20171;-72
2022/04/12 05:08:12;;;;;;;4.10;2.97;;;4.30;99.90;;;;;;5032910;28;20286;-71
2022/04/12 05:10:37;;;;;;;6.73;4.27;;;4.40;99.90;;;;;;5033107;28;20184;-71
2022/04/12 05:13:03;;;;;;;3.20;2.90;;;4.40;99.90;;;;;;5032827;28;20167;-72
2022/04/12 05:15:29;;;;;;;2.57;2.37;;;4.40;99.90;;;;;;5033104;28;20551;-71
2022/04/12 05:17:55;;;;;;;3.03;2.33;;;4.50;99.90;;;;;;5033093;28;20187;-72
2022/04/12 05:20:23;;;;;;;2.97;2.50;;;4.50;99.90;;;;;;5033192;28;20778;-72
2022/04/12 05:22:48;;;;;;;6.40;2.70;;;4.50;99.90;;;;;;5032805;28;20452;-71
2022/04/12 05:25:14;;;;;;;3.97;3.30;;;4.60;99.90;;;;;;5032767;28;20418;-71
2022/04/12 05:27:41;;;;;;;2.80;2.60;;;4.70;99.90;;;;;;5032550;28;20477;-72
2022/04/12 05:30:08;;;;;;;3.73;2.83;;;4.70;99.90;;;;;;5032666;28;20565;-72
2022/04/12 05:32:37;;;;;;;5.80;3.47;;;4.80;99.90;;;;;;5032691;28;20901;-73
2022/04/12 05:35:05;;;;;;;3.20;2.17;;;4.90;99.90;;;;;;5032807;28;20777;-72
2022/04/12 05:37:31;;;;;;;4.03;2.37;;;5.00;99.90;;;;;;5032837;28;20509;-71
2022/04/12 05:39:57;;;;;;;2.13;1.93;;;5.10;99.90;;;;;;5032858;28;20489;-71
2022/04/12 05:42:23;;;;;;;3.10;2.80;;;5.30;99.90;;;;;;5032611;28;20160;-72
2022/04/12 05:44:49;;;;;;;2.40;2.20;;;5.50;99.90;;;;;;5032266;28;20407;-72
2022/04/12 05:47:14;;;;;;;6.27;2.47;;;6.00;99.90;;;;;;5032611;28;20441;-72
2022/04/12 05:49:40;;;;;;;5.37;3.30;;;6.80;99.90;;;;;;5032984;28;20522;-73
2022/04/12 05:52:06;;;;;;;4.40;2.53;;;7.70;99.90;;;;;;5032453;28;20180;-73
2022/04/12 05:54:31;;;;;;;3.20;2.90;;;8.10;99.90;;;;;;5032314;28;20231;-73
2022/04/12 05:56:57;;;;;;;6.23;2.47;;;8.50;99.90;;;;;;5032301;28;20484;-73
2022/04/12 05:59:23;;;;;;;2.90;2.70;;;8.80;99.90;;;;;;5032239;28;20598;-71
2022/04/12 06:01:48;;;;;;;8.50;3.17;;;9.40;99.90;;;;;;5032021;28;20209;-72
2022/04/12 06:04:14;;;;;;;4.53;2.10;;;9.40;99.90;;;;;;5032008;28;20618;-71
2022/04/12 06:06:41;;;;;;;5.83;3.10;;;9.50;99.90;;;;;;5031870;28;20501;-71
2022/04/12 06:09:08;;;;;;;2.67;2.10;;;10.20;99.00;;;;;;5032089;28;20410;-71
2022/04/12 06:11:33;;;;;;;5.63;2.87;;;10.70;98.50;;;;;;5031914;28;20511;-72
2022/04/12 06:13:59;;;;;;;3.23;2.10;;;10.90;96.10;;;;;;5031776;28;20514;-72
2022/04/12 06:16:24;;;;;;;4.70;3.30;;;10.80;95.80;;;;;;5031672;28;20250;-73
2022/04/12 06:18:50;;;;;;;3.30;2.03;;;10.90;95.50;;;;;;5031810;28;20570;-72
2022/04/12 06:21:15;;;;;;;3.43;3.07;;;11.10;95.60;;;;;;5031572;28;20687;-73
2022/04/12 06:23:41;;;;;;;4.47;2.30;;;11.00;94.50;;;;;;5031913;28;20171;-72
2022/04/12 06:26:06;;;;;;;5.40;4.03;;;11.40;94.40;;;;;;5020136;28;20172;-72
2022/04/12 06:28:32;;;;;;;4.87;2.80;;;11.80;93.70;;;;;;5012185;28;20458;-73
2022/04/12 06:31:01;;;;;;;3.27;2.97;;;12.70;92.50;;;;;;5012082;28;20650;-73
2022/04/12 06:33:27;;;;;;;3.73;2.37;;;12.60;91.10;;;;;;5012121;28;20207;-73
2022/04/12 06:35:52;;;;;;;4.17;2.70;;;12.40;91.10;;;;;;5011992;28;20415;-73
2022/04/12 06:38:18;;;;;;;3.67;3.27;;;12.30;90.80;;;;;;5012094;28;20251;-73
2022/04/12 06:40:44;;;;;;;4.60;2.87;;;12.50;90.40;;;;;;5012196;28;20196;-72
2022/04/12 06:43:11;;;;;;;2.70;2.40;;;12.40;90.60;;;;;;5018663;28;20460;-72
2022/04/12 06:45:37;;;;;;;4.07;2.53;;;13.10;89.30;;;;;;5031640;28;20410;-72
2022/04/12 06:48:03;;;;;;;3.80;3.10;;;13.30;88.20;;;;;;5036673;28;20423;-73
2022/04/12 06:50:28;;;;;;;4.67;3.13;;;13.60;84.10;;;;;;5038298;28;20956;-73
2022/04/12 06:52:56;;;;;;;4.80;2.63;;;13.10;85.70;;;;;;5038386;28;20647;-71
2022/04/12 06:55:21;;;;;;;2.63;2.33;;;14.50;81.80;;;;;;5038756;28;20274;-72
2022/04/12 06:57:47;;;;;;;4.43;2.50;;;14.60;78.10;;;;;;5037926;28;20946;-71
2022/04/12 07:00:13;;;;;;;4.33;2.77;;;15.10;79.90;;;;;;5037883;28;20261;-73
2022/04/12 07:02:39;;;;;;;3.07;1.97;;;14.60;78.10;;;;;;5037804;28;20174;-71
2022/04/12 07:05:06;;;;;;;4.57;2.90;;;15.00;77.30;;;;;;5037547;28;20944;-72
2022/04/12 07:07:32;;;;;;;2.80;2.57;;;14.70;75.40;;;;;;5038101;28;20610;-73
2022/04/12 07:09:57;;;;;;;4.07;2.80;;;14.90;76.20;;;;;;5038315;28;20408;-73
2022/04/12 07:12:24;;;;;;;4.73;3.10;;;14.60;74.30;;;;;;5037741;28;20426;-72
2022/04/12 07:14:50;;;;;;;3.03;2.83;;;16.00;72.60;;;;;;5037998;28;20162;-72
2022/04/12 07:17:16;;;;;;;2.50;2.30;;;16.30;72.90;;;;;;5037983;28;20482;-71
2022/04/12 07:19:41;;;;;;;3.33;2.60;;;15.20;71.00;;;;;;5037627;28;20399;-70
2022/04/12 07:22:09;;;;;;;2.33;1.60;;;16.10;68.60;;;;;;5037667;28;20640;-71
2022/04/12 07:24:34;;;;;;;4.50;2.97;;;16.10;69.00;;;;;;5037599;28;20560;-71
2022/04/12 07:27:00;;;;;;;3.70;2.70;;;16.80;67.10;;;;;;5037408;28;20451;-71
2022/04/12 07:29:25;;;;;;;2.20;2.00;;;16.60;64.40;;;;;;5037722;28;20191;-72
2022/04/12 07:31:51;;;;;;;2.50;1.80;;;17.10;65.20;;;;;;5037773;28;20209;-72
2022/04/12 07:34:16;;;;;;;4.30;2.50;;;17.70;63.80;;;;;;5037803;28;20522;-72
2022/04/12 07:36:47;;;;;;;2.73;2.20;;;17.70;62.70;;;;;;5037652;28;20174;-72
2022/04/12 07:39:13;;;;;;;2.60;2.40;;;15.70;67.30;;;;;;5037575;28;20550;-73
2022/04/12 07:41:39;;;;;;;3.20;2.50;;;16.50;64.30;;;;;;5037725;28;20407;-72
2022/04/12 07:44:04;;;;;;;2.87;2.67;;;16.60;61.10;;;;;;5037585;28;20417;-72
2022/04/12 07:46:30;;;;;;;2.23;2.03;;;16.10;62.00;;;;;;5037531;28;20650;-72
2022/04/12 07:48:55;;;;;;;2.60;2.30;;;16.90;63.80;;;;;;5037573;28;20173;-71
2022/04/12 07:51:21;;;;;;;2.33;2.13;;;17.10;60.40;;;;;;5037320;28;20285;-72
2022/04/12 07:53:46;;;;;;;2.57;2.37;;;17.60;60.40;;;;;;5037455;28;20197;-71
2022/04/12 07:56:11;;;;;;;2.50;2.03;;;18.10;59.00;;;;;;5037250;28;20186;-71
2022/04/12 07:58:37;;;;;;;4.53;3.13;;;17.30;59.00;;;;;;5034200;28;20217;-71
2022/04/12 08:01:03;;;;;;;2.90;2.70;;;17.40;58.80;;;;;;5034206;28;20697;-72
2022/04/12 08:03:28;;;;;;;2.33;1.80;;;17.40;59.00;;;;;;5034104;28;20184;-72
2022/04/12 08:05:54;;;;;;;2.40;2.17;;;17.60;59.20;;;;;;5033940;28;20207;-73
2022/04/12 08:08:20;;;;;;;4.83;2.60;;;16.50;59.10;;;;;;5034442;28;20269;-72
2022/04/12 08:10:45;;;;;;;4.57;2.43;;;16.60;59.80;;;;;;5034012;28;20454;-71
2022/04/12 08:13:11;;;;;;;2.50;2.30;;;17.20;57.70;;;;;;5034024;28;20260;-71
2022/04/12 08:15:37;;;;;;;2.27;1.90;;;17.50;58.30;;;;;;5033976;28;20171;-71
2022/04/12 08:18:03;;;;;;;5.60;2.03;;;17.40;57.50;;;;;;5032736;28;20197;-72
2022/04/12 08:20:29;;;;;;;2.50;2.30;;;16.40;59.20;;;;;;5031734;28;20254;-71
2022/04/12 08:22:56;;;;;;;2.07;1.77;;;16.70;58.80;;;;;;5033527;28;20434;-72
2022/04/12 08:25:22;;;;;;;2.20;2.00;;;17.10;57.40;;;;;;5034089;28;20262;-72
2022/04/12 08:27:48;;;;;;;3.93;2.40;;;17.30;56.00;;;;;;5023363;28;20499;-72
2022/04/12 08:30:13;;;;;;;4.13;2.63;;;17.70;55.40;;;;;;5027891;28;20544;-72
2022/04/12 08:32:39;;;;;;;2.50;2.03;;;18.00;56.50;;;;;;5033478;28;20643;-72
2022/04/12 08:35:05;;;;;;;4.00;1.93;;;17.90;55.30;;;;;;5033451;28;20184;-72
2022/04/12 08:37:31;;;;;;;2.87;2.37;;;17.10;55.30;;;;;;5020098;28;20215;-70
2022/04/12 08:39:57;;;;;;;1.70;1.60;;;17.20;56.30;;;;;;5034190;28;20418;-70
2022/04/12 08:42:22;;;;;;;2.03;1.70;;;17.50;56.50;;;;;;5034099;28;20186;-71
2022/04/12 08:44:49;;;;;;;2.80;2.30;;;17.70;56.20;;;;;;5034169;28;20186;-70
2022/04/12 08:47:16;;;;;;;3.17;2.33;;;16.60;58.10;;;;;;5033754;28;20195;-71
2022/04/12 08:49:42;;;;;;;2.30;2.10;;;17.20;55.10;;;;;;5033873;28;20432;-71
2022/04/12 08:52:11;;;;;;;2.63;2.43;;;16.70;54.80;;;;;;5033761;28;20462;-68
2022/04/12 08:54:40;;;;;;;4.87;2.50;;;16.00;55.60;;;;;;5023545;28;21001;-73
2022/04/12 08:57:06;;;;;;;2.47;2.10;;;16.20;56.20;;;;;;5034267;28;20434;-71
2022/04/12 08:59:32;;;;;;;2.57;2.13;;;16.30;56.10;;;;;;5034106;28;20807;-71
2022/04/12 09:01:58;;;;;;;2.57;2.37;;;15.70;56.20;;;;;;5016391;28;20918;-71
2022/04/12 09:04:27;;;;;;;2.63;2.43;;;15.60;55.10;;;;;;5033916;28;20274;-71
2022/04/12 09:06:55;;;;;;;3.27;2.20;;;15.70;56.20;;;;;;5033940;28;20503;-70
2022/04/12 09:09:23;;;;;;;3.23;2.40;;;15.40;55.70;;;;;;5033542;28;20443;-71
2022/04/12 09:12:15;;;;;;;2.53;2.33;;;15.10;56.70;;;;;;5033599;28;20520;-71
2022/04/12 09:14:43;;;;;;;2.23;2.07;;;15.10;55.80;;;;;;5031096;28;20811;-71
2022/04/12 09:17:11;;;;;;;2.80;2.60;;;15.00;56.50;;;;;;5033680;28;20525;-71
2022/04/12 09:19:45;;;;;;;2.93;2.60;;;15.20;56.40;;;;;;5033890;28;20470;-71
2022/04/12 09:22:21;;;;;;;3.67;2.40;;;15.10;56.30;;;;;;5033923;28;20433;-71
2022/04/12 09:24:52;;;;;;;4.77;2.90;;;15.00;56.20;;;;;;5033785;28;20422;-71
2022/04/12 09:27:23;;;;;;;3.60;2.80;;;15.10;56.90;;;;;;5033437;28;20443;-70
2022/04/12 09:29:57;;;;;;;2.70;2.50;;;15.30;56.60;;;;;;5033373;28;20451;-72
2022/04/12 09:32:25;;;;;;;3.87;2.73;;;15.50;56.30;;;;;;5033479;28;20434;-71
2022/04/12 09:34:51;;;;;;;3.50;3.07;;;15.50;57.10;;;;;;5033839;28;20430;-71
2022/04/12 09:37:23;;;;;;;3.60;2.17;;;15.50;57.10;;;;;;5033220;28;20457;-71
2022/04/12 09:39:53;;;;;;;6.23;3.10;;;15.40;57.10;;;;;;5033261;28;20434;-71
2022/04/12 09:42:42;;;;;;;3.87;3.40;;;15.20;56.70;;;;;;5032923;28;20421;-71
2022/04/12 09:45:14;;;;;;;2.63;2.20;;;15.70;57.20;;;;;;5033187;28;20941;-71
2022/04/12 09:47:41;;;;;;;7.30;3.57;;;15.70;56.70;;;;;;5033262;28;20485;-72
2022/04/12 09:50:08;;;;;;;4.90;3.07;;;15.70;56.60;;;;;;5033068;28;20424;-70
2022/04/12 09:52:33;;;;;;;3.50;2.47;;;15.70;57.10;;;;;;5033275;28;20463;-71
2022/04/12 09:54:59;;;;;;;2.43;2.07;;;15.30;56.60;;;;;;5032954;28;20461;-72
2022/04/12 09:57:25;;;;;;;4.27;2.43;;;15.30;57.30;;;;;;5032656;28;20953;-71
2022/04/12 09:59:56;;;;;;;4.90;2.30;;;15.20;57.10;;;;;;5033284;28;20266;-73
2022/04/12 10:02:25;;;;;;;3.73;2.00;;;15.20;56.80;;;;;;5032537;28;20422;-72
2022/04/12 10:04:52;;;;;;;2.60;2.40;;;15.20;57.10;;;;;;5032481;28;20418;-72
2022/04/12 10:07:20;;;;;;;3.50;3.13;;;15.40;56.40;;;;;;5038213;28;20525;-72
2022/04/12 10:09:51;;;;;;;2.53;1.70;;;15.20;56.40;;;;;;5034945;28;20814;-72
2022/04/12 10:12:18;;;;;;;6.43;2.70;;;15.20;56.30;;;;;;5032571;28;20422;-71
2022/04/12 10:14:44;;;;;;;2.87;2.50;;;15.50;56.30;;;;;;5032922;28;20428;-72
2022/04/12 10:17:11;;;;;;;2.87;2.40;;;15.20;55.80;;;;;;5031975;28;20932;-72
2022/04/12 10:19:38;;;;;;;3.07;2.77;;;15.20;56.40;;;;;;5030895;28;20395;-72
2022/04/12 10:22:03;;;;;;;3.17;2.43;;;15.40;55.80;;;;;;5030961;28;20464;-71
2022/04/12 10:24:30;;;;;;;2.43;2.20;;;15.40;55.70;;;;;;5031492;28;20402;-72
2022/04/12 10:26:56;;;;;;;3.00;2.73;;;15.70;56.10;;;;;;5031659;28;20199;-72
2022/04/12 10:29:22;;;;;;;2.80;2.10;;;15.70;55.00;;;;;;5031681;28;20453;-71
2022/04/12 10:31:55;;;;;;;3.03;2.80;;;15.30;55.10;;;;;;5031474;28;20489;-73
2022/04/12 10:34:21;;;;;;;2.87;2.30;;;15.40;55.70;;;;;;5030300;28;20186;-71
2022/04/12 10:36:58;;;;;;;2.63;2.43;;;15.50;55.80;;;;;;5031679;28;20403;-72
2022/04/12 10:39:45;;;;;;;6.10;3.77;;;15.50;55.90;;;;;;5031591;28;20163;-74
2022/04/12 10:42:14;;;;;;;2.87;2.67;;;15.90;55.00;;;;;;5031583;28;20402;-71
2022/04/12 10:44:45;;;;;;;3.50;2.17;;;15.80;55.30;;;;;;5031458;28;20425;-73
2022/04/12 10:47:42;;;;;;;2.50;2.30;;;15.70;54.40;;;;;;5031377;28;20423;-71
2022/04/12 10:50:13;;;;;;;3.30;2.97;;;16.00;56.00;;;;;;5010415;28;20407;-72
2022/04/12 10:52:44;;;;;;;4.60;2.33;;;16.30;54.00;;;;;;5031438;28;20418;-71
2022/04/12 10:55:13;;;;;;;3.33;3.03;;;15.70;54.20;;;;;;5031782;28;20398;-71
2022/04/12 10:57:38;;;;;;;3.37;2.60;;;15.60;54.40;;;;;;5031551;28;20415;-72
2022/04/12 11:00:15;;;;;;;4.63;2.77;;;15.70;54.70;;;;;;5027314;28;20826;-71
2022/04/12 11:02:45;;;;;;;3.77;2.77;;;15.80;54.80;;;;;;5019740;28;20167;-72
2022/04/12 11:05:39;;;;;;;3.27;2.50;;;15.70;55.10;;;;;;5031177;28;20411;-72
2022/04/12 11:08:14;;;;;;;3.80;2.23;;;16.10;55.00;;;;;;5030661;28;20438;-73
2022/04/12 11:10:52;;;;;;;3.80;3.43;;;16.10;54.40;;;;;;5018070;28;20481;-71
2022/04/12 11:13:21;;;;;;;4.07;2.77;;;16.30;54.20;;;;;;5030778;28;20434;-71
2022/04/12 11:15:59;;;;;;;2.87;2.63;;;16.20;54.40;;;;;;5020901;28;20426;-71
2022/04/12 11:18:50;;;;;;;2.90;2.57;;;16.40;54.70;;;;;;5014595;28;20457;-72
2022/04/12 11:21:18;;;;;;;3.30;2.70;;;16.10;53.90;;;;;;5031369;28;20771;-71
2022/04/12 11:23:45;;;;;;;4.90;2.53;;;15.90;53.80;;;;;;5031737;28;20406;-71
2022/04/12 11:26:38;;;;;;;3.80;2.60;;;16.00;54.30;;;;;;5031057;28;20421;-71
2022/04/12 11:29:26;;;;;;;3.03;2.70;;;16.30;53.90;;;;;;5027505;28;20442;-72
2022/04/12 11:31:56;;;;;;;3.10;2.80;;;16.20;53.60;;;;;;5011659;28;20447;-72
2022/04/12 11:34:26;;;;;;;2.83;2.30;;;16.00;53.70;;;;;;5027990;28;20417;-71
2022/04/12 11:37:05;;;;;;;3.27;2.97;;;16.20;54.60;;;;;;5034980;28;20450;-72
2022/04/12 11:39:32;;;;;;;3.70;2.43;;;16.40;54.70;;;;;;5015454;28;20906;-71
2022/04/12 11:42:00;;;;;;;3.03;2.60;;;16.00;54.70;;;;;;5015233;28;20497;-72
2022/04/12 11:44:27;;;;;;;3.30;2.37;;;16.20;55.20;;;;;;5032561;28;20415;-72
2022/04/12 11:46:57;;;;;;;4.33;3.20;;;16.50;54.30;;;;;;5035151;28;20427;-70
2022/04/12 11:49:28;;;;;;;3.50;2.47;;;16.50;53.50;;;;;;5034592;28;20411;-71
2022/04/12 11:51:54;;;;;;;7.27;3.53;;;16.50;53.60;;;;;;5035134;28;20476;-71
2022/04/12 11:54:23;;;;;;;2.77;2.57;;;16.40;53.30;;;;;;5035416;28;20501;-73
2022/04/12 11:56:57;;;;;;;4.87;2.80;;;16.30;52.90;;;;;;5029529;28;20210;-71
2022/04/12 11:59:23;;;;;;;4.33;3.30;;;16.20;53.70;;;;;;5034940;28;20407;-71
2022/04/12 12:01:48;;;;;;;2.33;2.10;;;16.30;53.70;;;;;;5035114;28;20422;-70
2022/04/12 12:04:13;;;;;;;2.70;2.37;;;16.50;53.20;;;;;;5034786;28;20179;-71
2022/04/12 12:06:56;;;;;;;4.30;3.20;;;16.40;53.30;;;;;;5034427;28;20179;-71
2022/04/12 12:09:21;;;;;;;4.27;3.10;;;16.30;53.50;;;;;;5031114;28;20198;-72
2022/04/12 12:11:48;;;;;;;3.47;3.17;;;16.20;53.70;;;;;;5018551;28;20455;-70
2022/04/12 12:14:14;;;;;;;3.07;2.80;;;16.30;53.90;;;;;;5033182;28;20172;-72
2022/04/12 12:16:41;;;;;;;4.67;3.10;;;16.50;54.00;;;;;;5033048;28;20472;-71
2022/04/12 12:19:06;;;;;;;3.50;2.93;;;16.60;53.60;;;;;;5027344;28;20415;-71
2022/04/12 12:21:32;;;;;;;4.47;3.60;;;16.70;53.90;;;;;;5033246;28;20427;-70
2022/04/12 12:23:57;;;;;;;2.73;2.20;;;16.80;53.30;;;;;;5033483;28;20640;-72
2022/04/12 12:26:29;;;;;;;3.80;2.67;;;16.50;53.20;;;;;;5033453;28;20214;-69
2022/04/12 12:28:58;;;;;;;4.30;2.40;;;16.50;52.50;;;;;;5030534;28;20290;-74
2022/04/12 12:31:25;;;;;;;3.70;2.10;;;16.30;51.70;;;;;;5033243;28;20485;-71
2022/04/12 12:33:50;;;;;;;4.40;3.17;;;16.50;51.70;;;;;;5033499;28;20489;-70
2022/04/12 12:36:20;;;;;;;4.50;3.07;;;16.30;51.70;;;;;;5033013;28;20468;-72
2022/04/12 12:38:46;;;;;;;4.10;2.90;;;16.10;51.70;;;;;;5026340;28;20650;-72
2022/04/12 12:41:26;;;;;;;4.70;2.60;;;16.30;52.40;;;;;;5020115;28;20435;-72
2022/04/12 12:44:00;;;;;;;3.97;2.80;;;16.00;52.10;;;;;;5041347;28;20900;-72
2022/04/12 12:46:27;;;;;;;2.83;2.63;;;15.80;52.00;;;;;;5021687;28;20437;-71
2022/04/12 12:49:13;;;;;;;3.10;2.80;;;15.80;52.30;;;;;;5033294;28;20442;-71
2022/04/12 12:51:40;;;;;;;2.83;2.07;;;16.00;52.00;;;;;;5017119;28;20973;-72
2022/04/12 12:54:09;;;;;;;2.50;2.30;;;16.00;52.00;;;;;;5013829;28;20787;-72